Terminal Aerodrome Forecast
Issued by NWS

Home | Current Version | Previous Version | Text Only | Print | Product List | Glossary Off
Versions: 1 2 3 4 5 6 7 8 9 10 11 12 13 14 15

596
FTUS43 KABR 270351 AAB
TAFATY
TAF AMD
KATY 270351Z 2704/2724 35013KT P6SM SCT013 OVC025
     FM270900 34013KT P6SM OVC015
     FM271900 33011KT P6SM OVC025
     FM272200 33011KT P6SM SCT250=

USA.gov is the U.S. government's official web portal to all federal, state and local government web resources and services.